createdAt,value
2023-11-04T00:01:33.305Z,1.30
2023-11-04T00:04:01.720Z,1.00
2023-11-04T00:06:28.577Z,1.52
2023-11-04T00:08:55.490Z,0.88
2023-11-04T00:11:23.471Z,0.95
2023-11-04T00:13:53.064Z,1.25
2023-11-04T00:16:20.664Z,0.95
2023-11-04T00:18:47.744Z,1.50
2023-11-04T00:21:21.554Z,1.33
2023-11-04T00:23:48.976Z,1.33
2023-11-04T00:26:15.706Z,1.17
2023-11-04T00:28:43.800Z,1.00
2023-11-04T00:31:10.894Z,1.30
2023-11-04T00:33:41.969Z,1.30
2023-11-04T00:36:09.977Z,1.23
2023-11-04T00:38:39.173Z,1.00
2023-11-04T00:41:08.031Z,1.15
2023-11-04T00:43:38.136Z,1.08
2023-11-04T00:46:05.372Z,1.10
2023-11-04T00:48:37.122Z,1.25
2023-11-04T00:51:05.592Z,1.73
2023-11-04T00:53:35.854Z,0.73
2023-11-04T00:56:04.027Z,1.30
2023-11-04T00:58:30.968Z,1.08
2023-11-04T01:00:58.254Z,0.95
2023-11-04T01:03:27.899Z,1.40
2023-11-04T01:05:54.978Z,1.38
2023-11-04T01:08:21.834Z,1.60
2023-11-04T01:10:49.411Z,1.58
2023-11-04T01:13:41.452Z,1.23
2023-11-04T01:16:22.718Z,1.50
2023-11-04T01:18:55.196Z,1.70
2023-11-04T01:21:22.594Z,1.38
2023-11-04T01:23:54.509Z,1.10
2023-11-04T01:26:21.827Z,1.42
2023-11-04T01:29:01.805Z,1.83
2023-11-04T01:31:29.637Z,1.55
2023-11-04T01:33:57.215Z,1.25
2023-11-04T01:36:25.445Z,1.75
2023-11-04T01:39:07.691Z,1.55
2023-11-04T01:41:45.270Z,1.83
2023-11-04T01:44:17.149Z,2.10
2023-11-04T01:46:48.659Z,2.35
2023-11-04T01:49:19.114Z,2.42
2023-11-04T01:51:46.719Z,2.50
2023-11-04T01:54:14.411Z,2.53
2023-11-04T01:56:42.498Z,2.50
2023-11-04T01:59:12.393Z,2.90
2023-11-04T02:01:41.806Z,2.40
2023-11-04T02:04:09.240Z,3.22
2023-11-04T02:06:36.502Z,2.30
2023-11-04T02:09:04.569Z,2.75
2023-11-04T02:11:31.767Z,2.70
2023-11-04T02:13:58.642Z,2.88
2023-11-04T02:16:25.634Z,3.10
2023-11-04T02:18:52.647Z,3.00
2023-11-04T02:21:19.734Z,2.75
2023-11-04T02:23:46.536Z,3.20
2023-11-04T02:26:14.079Z,3.40
2023-11-04T02:28:40.934Z,3.30
2023-11-04T02:31:10.756Z,3.10
2023-11-04T02:33:40.173Z,3.70
2023-11-04T02:36:07.623Z,3.40
2023-11-04T02:38:34.518Z,3.70
2023-11-04T02:41:07.599Z,3.70
2023-11-04T02:43:34.404Z,3.55
2023-11-04T02:46:05.483Z,3.70
2023-11-04T02:48:34.214Z,3.75
2023-11-04T02:51:01.147Z,3.63
2023-11-04T02:53:30.623Z,3.45
2023-11-04T02:55:57.435Z,4.57
2023-11-04T02:58:29.186Z,4.15
2023-11-04T03:00:57.850Z,4.03
2023-11-04T03:03:26.264Z,4.32
2023-11-04T03:05:53.176Z,4.70
2023-11-04T03:08:20.044Z,5.40
2023-11-04T03:10:54.981Z,5.40
2023-11-04T03:13:21.770Z,4.68
2023-11-04T03:15:57.759Z,6.05
2023-11-04T03:18:28.922Z,5.40
2023-11-04T03:20:56.319Z,5.03
2023-11-04T03:23:29.737Z,5.45
2023-11-04T03:25:56.508Z,6.45
2023-11-04T03:28:23.916Z,5.60
2023-11-04T03:30:50.657Z,5.60
2023-11-04T03:33:28.078Z,6.20
2023-11-04T03:35:55.470Z,5.18
2023-11-04T03:38:29.776Z,5.45
2023-11-04T03:40:56.691Z,6.15
2023-11-04T03:43:24.157Z,6.30
2023-11-04T03:45:59.766Z,5.82
2023-11-04T03:48:27.933Z,6.22
2023-11-04T03:50:58.907Z,6.82
2023-11-04T03:53:34.331Z,6.22
2023-11-04T03:56:02.711Z,5.65
2023-11-04T03:58:33.322Z,6.25
2023-11-04T04:01:04.192Z,6.30
2023-11-04T04:03:31.089Z,5.45
2023-11-04T04:05:57.998Z,6.20
2023-11-04T04:08:24.797Z,6.35
2023-11-04T04:10:51.654Z,6.47
2023-11-04T04:13:18.673Z,5.85
2023-11-04T04:15:48.973Z,6.25
2023-11-04T04:18:15.911Z,6.22
2023-11-04T04:20:45.403Z,6.70
2023-11-04T04:23:14.117Z,7.43
2023-11-04T04:25:45.549Z,7.57
2023-11-04T04:28:12.516Z,7.15
2023-11-04T04:30:45.067Z,6.70
2023-11-04T04:33:13.603Z,7.90
2023-11-04T04:35:41.996Z,6.68
2023-11-04T04:38:08.905Z,7.05
2023-11-04T04:40:38.815Z,6.85
2023-11-04T04:43:06.026Z,6.38
2023-11-04T04:45:33.118Z,6.55
2023-11-04T04:48:00.103Z,6.90
2023-11-04T04:50:33.214Z,6.28
2023-11-04T04:53:01.370Z,6.75
2023-11-04T04:55:34.255Z,6.03
2023-11-04T04:58:01.009Z,6.13
2023-11-04T05:00:27.908Z,5.10
2023-11-04T05:02:54.810Z,5.72
2023-11-04T05:05:21.732Z,5.40
2023-11-04T05:07:51.272Z,5.25
2023-11-04T05:10:18.282Z,5.22
2023-11-04T05:12:45.206Z,5.50
2023-11-04T05:15:14.843Z,5.05
2023-11-04T05:17:42.488Z,4.88
2023-11-04T05:20:09.992Z,4.97
2023-11-04T05:22:44.895Z,5.65
2023-11-04T05:25:15.088Z,5.88
2023-11-04T05:27:42.414Z,5.32
2023-11-04T05:30:10.099Z,6.10
2023-11-04T05:32:37.308Z,5.20
2023-11-04T05:35:07.777Z,5.35
2023-11-04T05:37:36.736Z,5.95
2023-11-04T05:40:04.761Z,5.57
2023-11-04T05:42:31.754Z,5.65
2023-11-04T05:45:11.241Z,6.30
2023-11-04T05:47:38.113Z,5.80
2023-11-04T05:50:07.213Z,6.20
2023-11-04T05:52:39.747Z,5.95
2023-11-04T05:55:07.004Z,5.28
2023-11-04T05:57:40.590Z,5.55
2023-11-04T06:00:14.146Z,6.38
2023-11-04T06:02:48.333Z,6.05
2023-11-04T06:05:18.619Z,6.80
2023-11-04T06:07:45.621Z,5.65
2023-11-04T06:10:14.292Z,5.28
2023-11-04T06:12:44.404Z,5.95
2023-11-04T06:15:14.786Z,5.70
2023-11-04T06:17:41.914Z,6.53
2023-11-04T06:20:14.719Z,6.03
2023-11-04T06:22:41.534Z,6.25
2023-11-04T06:25:09.336Z,5.97
2023-11-04T06:27:37.660Z,6.95
2023-11-04T06:30:04.940Z,5.70
2023-11-04T06:32:31.902Z,5.00
2023-11-04T06:35:03.416Z,5.03
2023-11-04T06:37:31.907Z,5.63
2023-11-04T06:40:00.329Z,5.38
2023-11-04T06:42:28.771Z,5.60
2023-11-04T06:44:56.293Z,6.07
2023-11-04T06:47:24.357Z,6.50
2023-11-04T06:49:51.438Z,4.60
2023-11-04T06:52:22.261Z,6.40
2023-11-04T06:54:51.569Z,6.80
2023-11-04T06:57:18.471Z,6.85
2023-11-04T06:59:45.379Z,8.48
2023-11-04T07:02:12.581Z,6.25
2023-11-04T07:04:39.730Z,5.00
2023-11-04T07:07:07.542Z,5.40
2023-11-04T07:09:38.186Z,5.93
2023-11-04T07:12:07.825Z,6.15
2023-11-04T07:14:36.119Z,5.40
2023-11-04T07:17:04.305Z,5.47
2023-11-04T07:19:35.239Z,5.88
2023-11-04T07:22:02.509Z,6.13
2023-11-04T07:24:29.601Z,6.22
2023-11-04T07:26:56.629Z,5.15
2023-11-04T07:29:24.948Z,5.40
2023-11-04T07:31:55.213Z,5.00
2023-11-04T07:34:25.109Z,5.90
2023-11-04T07:36:53.039Z,4.70
2023-11-04T07:39:23.318Z,5.03
2023-11-04T07:41:53.454Z,5.15
2023-11-04T07:44:20.401Z,5.72
2023-11-04T07:46:49.859Z,5.75
2023-11-04T07:49:24.818Z,6.43
2023-11-04T07:51:52.201Z,6.95
2023-11-04T07:54:19.115Z,6.10
2023-11-04T07:56:49.298Z,6.30
2023-11-04T07:59:17.910Z,6.38
2023-11-04T08:01:46.392Z,7.07
2023-11-04T08:04:13.726Z,6.55
2023-11-04T08:06:40.580Z,5.20
2023-11-04T08:09:09.393Z,4.80
2023-11-04T08:11:43.268Z,5.93
2023-11-04T08:14:10.321Z,5.80
2023-11-04T08:16:37.094Z,4.57
2023-11-04T08:19:05.173Z,5.40
2023-11-04T08:21:32.936Z,4.35
2023-11-04T08:24:02.147Z,5.57
2023-11-04T08:26:30.741Z,4.97
2023-11-04T08:28:58.061Z,3.58
2023-11-04T08:31:27.810Z,3.05
2023-11-04T08:33:59.754Z,2.70
2023-11-04T08:36:32.359Z,4.50
2023-11-04T08:39:00.801Z,4.32
2023-11-04T08:41:37.700Z,4.25
2023-11-04T08:44:05.105Z,6.40
2023-11-04T08:46:32.973Z,4.70
2023-11-04T08:49:03.489Z,5.10
2023-11-04T08:51:41.041Z,5.75
2023-11-04T08:54:14.766Z,5.65
2023-11-04T08:56:44.302Z,5.78
2023-11-04T08:59:11.276Z,5.00
2023-11-04T09:01:38.425Z,4.25
2023-11-04T09:04:09.174Z,4.80
2023-11-04T09:06:44.629Z,6.43
2023-11-04T09:09:11.679Z,6.15
2023-11-04T09:11:40.781Z,5.47
2023-11-04T09:14:09.152Z,6.28
2023-11-04T09:16:37.433Z,8.13
2023-11-04T09:19:05.407Z,7.45
2023-11-04T09:21:34.062Z,6.65
2023-11-04T09:24:03.560Z,6.80
2023-11-04T09:26:34.020Z,7.70
2023-11-04T09:29:01.196Z,8.50
2023-11-04T09:31:33.353Z,4.50
2023-11-04T09:34:01.559Z,4.28
2023-11-04T09:36:28.636Z,8.10
2023-11-04T09:38:57.262Z,9.00
2023-11-04T09:41:24.345Z,8.13
2023-11-04T09:43:53.357Z,6.13
2023-11-04T09:46:22.513Z,8.25
2023-11-04T09:48:57.953Z,8.70
2023-11-04T09:51:29.708Z,7.18
2023-11-04T09:54:05.550Z,3.72
2023-11-04T09:56:33.438Z,7.50
2023-11-04T09:59:02.794Z,6.97
2023-11-04T10:01:32.861Z,6.93
2023-11-04T10:04:00.070Z,5.88
2023-11-04T10:06:34.947Z,4.82
2023-11-04T10:09:02.641Z,6.15
2023-11-04T10:11:38.946Z,8.35
2023-11-04T10:14:07.250Z,7.43
2023-11-04T10:16:34.232Z,8.25
2023-11-04T10:19:02.484Z,7.60
2023-11-04T10:21:44.463Z,7.20
2023-11-04T10:26:39.134Z,6.07
2023-11-04T10:29:13.659Z,6.47
2023-11-04T10:31:43.773Z,7.30
2023-11-04T10:34:15.000Z,7.60
2023-11-04T10:36:52.202Z,5.40
2023-11-04T10:39:21.644Z,5.03
2023-11-04T10:42:13.320Z,7.03
2023-11-04T10:44:42.473Z,4.15
2023-11-04T10:47:46.463Z,5.70
2023-11-04T10:50:36.340Z,7.32
2023-11-04T10:53:15.356Z,6.32
2023-11-04T10:55:57.196Z,7.57
2023-11-04T10:59:04.116Z,7.57
2023-11-04T11:01:32.288Z,7.05
2023-11-04T11:04:03.057Z,7.88
2023-11-04T11:06:31.560Z,7.73
2023-11-04T11:09:01.561Z,7.95
2023-11-04T11:11:46.362Z,6.72
2023-11-04T11:14:13.823Z,5.68
2023-11-04T11:16:42.128Z,8.38
2023-11-04T11:19:13.674Z,8.27
2023-11-04T11:21:51.375Z,7.03
2023-11-04T11:24:22.399Z,6.95
2023-11-04T11:27:05.467Z,6.23
2023-11-04T11:29:34.853Z,4.95
2023-11-04T11:32:07.249Z,4.53
2023-11-04T11:34:34.138Z,4.72
2023-11-04T11:37:13.052Z,4.72
2023-11-04T11:39:40.167Z,6.78
2023-11-04T11:42:07.120Z,7.60
2023-11-04T11:44:34.654Z,5.30
2023-11-04T11:47:03.565Z,5.32
2023-11-04T11:49:32.549Z,6.50
2023-11-04T11:52:12.524Z,7.57
2023-11-04T11:54:40.715Z,5.65
2023-11-04T11:57:07.759Z,7.25
2023-11-04T11:59:35.934Z,8.68
2023-11-04T12:02:02.923Z,8.05
2023-11-04T12:04:30.773Z,6.18
2023-11-04T12:06:59.241Z,6.70
2023-11-04T12:09:25.908Z,4.93
2023-11-04T12:12:01.204Z,7.28
2023-11-04T12:14:28.844Z,6.68
2023-11-04T12:16:55.809Z,3.95
2023-11-04T12:19:23.765Z,8.88
2023-11-04T12:21:51.148Z,5.30
2023-11-04T12:24:19.653Z,6.13
2023-11-04T12:26:48.136Z,4.78
2023-11-04T12:29:15.044Z,5.90
2023-11-04T12:31:43.042Z,5.30
2023-11-04T12:34:12.361Z,4.60
2023-11-04T12:36:39.444Z,4.55
2023-11-04T12:39:06.605Z,5.30
2023-11-04T12:41:34.266Z,5.70
2023-11-04T12:44:04.957Z,5.35
2023-11-04T12:46:32.477Z,5.63
2023-11-04T12:48:59.786Z,6.13
2023-11-04T12:51:26.737Z,3.72
2023-11-04T12:53:53.933Z,3.67
2023-11-04T12:56:21.038Z,5.55
2023-11-04T12:58:55.501Z,4.50
2023-11-04T13:01:22.269Z,5.20
2023-11-04T13:03:50.598Z,5.95
2023-11-04T13:06:20.659Z,4.70
2023-11-04T13:08:48.347Z,4.40
2023-11-04T13:11:15.331Z,4.78
2023-11-04T13:13:42.496Z,5.05
2023-11-04T13:16:10.473Z,6.03
2023-11-04T13:18:37.589Z,3.78
2023-11-04T13:21:07.354Z,4.00
2023-11-04T13:23:34.914Z,5.53
2023-11-04T13:26:03.065Z,4.53
2023-11-04T13:28:32.334Z,3.42
2023-11-04T13:31:00.488Z,4.20
2023-11-04T13:33:27.435Z,3.97
2023-11-04T13:35:54.503Z,5.13
2023-11-04T13:38:26.223Z,5.22
2023-11-04T13:40:53.500Z,4.97
2023-11-04T13:43:20.530Z,4.78
2023-11-04T13:45:47.402Z,3.45
2023-11-04T13:48:14.251Z,5.47
2023-11-04T13:50:41.002Z,2.85
2023-11-04T13:53:07.972Z,3.42
2023-11-04T13:55:34.808Z,3.08
2023-11-04T13:58:02.750Z,6.95
2023-11-04T14:00:29.534Z,5.63
2023-11-04T14:03:02.686Z,4.00
2023-11-04T14:05:29.952Z,4.72
2023-11-04T14:07:59.841Z,4.38
2023-11-04T14:10:29.227Z,3.63
2023-11-04T14:12:56.259Z,3.35
2023-11-04T14:15:23.138Z,4.50
2023-11-04T14:17:49.918Z,2.55
2023-11-04T14:20:22.140Z,3.22
2023-11-04T14:22:49.832Z,4.32
2023-11-04T14:25:20.342Z,4.40
2023-11-04T14:27:48.994Z,4.78
2023-11-04T14:30:16.496Z,3.10
2023-11-04T14:32:43.522Z,5.20
2023-11-04T14:35:12.496Z,4.85
2023-11-04T14:37:39.997Z,5.22
2023-11-04T14:40:14.538Z,4.53
2023-11-04T14:42:49.494Z,3.80
2023-11-04T14:45:19.291Z,3.95
2023-11-04T14:47:46.287Z,4.28
2023-11-04T14:50:14.206Z,4.20
2023-11-04T14:52:44.555Z,4.70
2023-11-04T14:55:12.880Z,3.47
2023-11-04T14:57:42.661Z,4.07
2023-11-04T15:00:11.458Z,4.10
2023-11-04T15:02:40.390Z,4.10
2023-11-04T15:05:11.068Z,3.95
2023-11-04T15:07:39.300Z,3.55
2023-11-04T15:10:12.389Z,4.25
2023-11-04T15:12:48.428Z,4.50
2023-11-04T15:15:17.530Z,4.68
2023-11-04T15:17:48.361Z,3.13
2023-11-04T15:20:17.088Z,4.57
2023-11-04T15:22:44.396Z,4.13
2023-11-04T15:25:12.222Z,2.75
2023-11-04T15:27:40.778Z,5.22
2023-11-04T15:30:24.361Z,4.15
2023-11-04T15:32:54.629Z,2.70
2023-11-04T15:35:28.984Z,4.38
2023-11-04T15:37:56.279Z,3.15
2023-11-04T15:40:24.744Z,3.50
2023-11-04T15:42:54.505Z,2.63
2023-11-04T15:45:21.854Z,3.30
2023-11-04T15:47:48.907Z,4.43
2023-11-04T15:50:16.343Z,3.45
2023-11-04T15:52:46.105Z,3.30
2023-11-04T15:55:13.665Z,4.00
2023-11-04T15:57:43.786Z,4.10
2023-11-04T16:00:17.553Z,3.22
2023-11-04T16:02:44.434Z,3.50
2023-11-04T16:05:11.945Z,4.07
2023-11-04T16:07:46.197Z,3.80
2023-11-04T16:10:19.619Z,3.45
2023-11-04T16:12:49.352Z,2.83
2023-11-04T16:15:21.619Z,2.97
2023-11-04T16:17:52.671Z,3.22
2023-11-04T16:20:20.389Z,2.65
2023-11-04T16:22:47.677Z,2.92
2023-11-04T16:25:15.738Z,3.33
2023-11-04T16:27:42.512Z,3.65
2023-11-04T16:30:16.557Z,2.60
2023-11-04T16:32:45.486Z,2.42
2023-11-04T16:35:12.757Z,2.90
2023-11-04T16:37:40.504Z,2.67
2023-11-04T16:40:10.083Z,1.75
2023-11-04T16:42:37.741Z,1.70
2023-11-04T16:45:17.467Z,2.90
2023-11-04T16:47:44.982Z,2.20
2023-11-04T16:50:16.017Z,1.60
2023-11-04T16:52:43.709Z,2.13
2023-11-04T16:55:12.916Z,2.03
2023-11-04T16:57:42.125Z,2.50
2023-11-04T17:03:02.135Z,2.10
2023-11-04T17:05:33.120Z,2.67
2023-11-04T17:08:01.027Z,1.50
2023-11-04T17:10:28.873Z,1.90
2023-11-04T17:13:01.857Z,1.58
2023-11-04T17:15:31.423Z,2.10
2023-11-04T17:17:58.972Z,1.80
2023-11-04T17:20:30.485Z,2.08
2023-11-04T17:22:58.367Z,1.88
2023-11-04T17:25:25.348Z,1.55
2023-11-04T17:27:55.628Z,1.55
2023-11-04T17:30:24.658Z,1.65
2023-11-04T17:32:51.781Z,1.75
2023-11-04T17:35:20.740Z,1.90
2023-11-04T17:37:51.721Z,2.25
2023-11-04T17:40:26.729Z,1.80
2023-11-04T17:42:55.474Z,1.90
2023-11-04T17:45:34.402Z,1.88
2023-11-04T17:48:01.155Z,1.80
2023-11-04T17:50:33.867Z,2.00
2023-11-04T17:53:00.597Z,1.95
2023-11-04T17:55:27.433Z,1.88
2023-11-04T17:57:55.493Z,1.65
2023-11-04T18:00:22.613Z,1.88
2023-11-04T18:02:52.466Z,2.50
2023-11-04T18:05:20.527Z,1.60
2023-11-04T18:07:48.467Z,1.70
2023-11-04T18:10:18.758Z,1.55
2023-11-04T18:12:45.797Z,1.45
2023-11-04T18:15:17.365Z,2.30
2023-11-04T18:17:45.679Z,1.83
2023-11-04T18:20:13.103Z,1.20
2023-11-04T18:22:40.111Z,1.50
2023-11-04T18:25:09.669Z,1.77
2023-11-04T18:27:51.159Z,1.75
2023-11-04T18:30:25.827Z,1.80
2023-11-04T18:32:53.322Z,1.60
2023-11-04T18:35:20.500Z,1.40
2023-11-04T18:37:51.166Z,1.63
2023-11-04T18:40:19.214Z,1.67
2023-11-04T18:42:51.456Z,1.17
2023-11-04T18:45:18.694Z,1.10
2023-11-04T18:47:46.803Z,1.52
2023-11-04T18:50:14.812Z,1.90
2023-11-04T18:52:41.844Z,1.80
2023-11-04T18:55:15.409Z,1.83
2023-11-04T18:57:44.764Z,1.83
2023-11-04T19:00:22.638Z,1.35
2023-11-04T19:03:00.226Z,1.50
2023-11-04T19:05:27.434Z,1.50
2023-11-04T19:07:58.738Z,1.80
2023-11-04T19:10:27.355Z,1.38
2023-11-04T19:12:57.739Z,1.83
2023-11-04T19:15:32.752Z,1.60
2023-11-04T19:17:59.965Z,1.60
2023-11-04T19:20:39.706Z,1.30
2023-11-04T19:23:07.288Z,2.13
2023-11-04T19:25:34.757Z,3.08
2023-11-04T19:28:07.064Z,1.42
2023-11-04T19:30:37.097Z,1.83
2023-11-04T19:33:04.263Z,1.85
2023-11-04T19:35:31.401Z,1.85
2023-11-04T19:37:58.436Z,2.22
2023-11-04T19:40:26.279Z,1.40
2023-11-04T19:42:53.376Z,1.50
2023-11-04T19:45:23.977Z,1.40
2023-11-04T19:47:54.927Z,1.17
2023-11-04T19:50:21.850Z,1.50
2023-11-04T19:52:49.079Z,1.45
2023-11-04T19:55:18.933Z,2.65
2023-11-04T19:57:45.826Z,1.92
2023-11-04T20:00:13.280Z,1.60
2023-11-04T20:02:40.152Z,1.27
2023-11-04T20:05:09.841Z,1.35
2023-11-04T20:07:37.233Z,1.63
2023-11-04T20:10:04.735Z,1.40
2023-11-04T20:12:32.201Z,1.60
2023-11-04T20:14:59.622Z,1.67
2023-11-04T20:17:30.100Z,1.35
2023-11-04T20:20:00.173Z,1.67
2023-11-04T20:22:32.241Z,2.17
2023-11-04T20:25:02.636Z,1.67
2023-11-04T20:27:35.765Z,1.88
2023-11-04T20:30:05.733Z,1.88
2023-11-04T20:32:32.506Z,2.30
2023-11-04T20:35:01.383Z,2.42
2023-11-04T20:37:28.528Z,2.30
2023-11-04T20:39:56.822Z,2.78
2023-11-04T20:42:24.350Z,2.47
2023-11-04T20:44:54.577Z,3.22
2023-11-04T20:47:21.925Z,3.40
2023-11-04T20:49:49.136Z,1.83
2023-11-04T20:52:22.159Z,1.70
2023-11-04T20:54:49.451Z,2.67
2023-11-04T20:57:16.656Z,2.22
2023-11-04T20:59:45.937Z,1.63
2023-11-04T21:02:13.098Z,2.13
2023-11-04T21:04:42.346Z,2.38
2023-11-04T21:07:11.032Z,3.63
2023-11-04T21:09:39.672Z,4.15
2023-11-04T21:12:07.577Z,3.50
2023-11-04T21:14:36.704Z,2.95
2023-11-04T21:17:10.762Z,2.28
2023-11-04T21:19:50.672Z,1.90
2023-11-04T21:22:17.778Z,2.55
2023-11-04T21:24:46.751Z,2.00
2023-11-04T21:27:21.017Z,2.22
2023-11-04T21:29:47.980Z,1.67
2023-11-04T21:32:16.342Z,2.30
2023-11-04T21:34:43.268Z,2.50
2023-11-04T21:37:11.202Z,2.40
2023-11-04T21:39:41.534Z,3.00
2023-11-04T21:42:13.498Z,1.65
2023-11-04T21:44:40.579Z,1.40
2023-11-04T21:47:07.544Z,2.28
2023-11-04T21:49:37.459Z,1.65
2023-11-04T21:52:06.300Z,2.00
2023-11-04T21:54:33.396Z,2.05
2023-11-04T21:57:00.661Z,1.92
2023-11-04T21:59:28.711Z,2.58
2023-11-04T22:01:56.236Z,1.77
2023-11-04T22:04:45.993Z,2.30
2023-11-04T22:07:13.493Z,2.28
2023-11-04T22:09:42.019Z,3.10
2023-11-04T22:12:09.191Z,2.50
2023-11-04T22:14:37.124Z,2.10
2023-11-04T22:17:04.348Z,3.38
2023-11-04T22:19:31.534Z,2.83
2023-11-04T22:21:58.790Z,3.95
2023-11-04T22:24:27.316Z,2.30
2023-11-04T22:26:54.604Z,2.20
2023-11-04T22:29:26.258Z,2.78
2023-11-04T22:34:23.189Z,3.67
2023-11-04T22:36:50.256Z,2.00
2023-11-04T22:39:19.452Z,3.22
2023-11-04T22:41:47.106Z,2.47
2023-11-04T22:44:14.816Z,2.40
2023-11-04T22:46:42.199Z,2.60
2023-11-04T22:49:14.016Z,2.55
2023-11-04T22:51:44.429Z,3.00
2023-11-04T22:54:15.062Z,2.47
2023-11-04T22:56:42.651Z,2.30
2023-11-04T22:59:13.944Z,2.67
2023-11-04T23:01:40.865Z,2.35
2023-11-04T23:04:07.993Z,3.28
2023-11-04T23:06:35.026Z,2.50
2023-11-04T23:09:02.708Z,1.92
2023-11-04T23:11:32.105Z,3.13
2023-11-04T23:14:05.433Z,2.40
2023-11-04T23:16:35.466Z,2.45
2023-11-04T23:19:04.114Z,2.33
2023-11-04T23:21:33.732Z,2.80
2023-11-04T23:24:00.970Z,2.17
2023-11-04T23:26:28.352Z,2.63
2023-11-04T23:28:55.657Z,2.25
2023-11-04T23:31:22.606Z,2.25
2023-11-04T23:33:51.006Z,2.45
2023-11-04T23:36:18.053Z,2.45
2023-11-04T23:38:45.678Z,2.90
2023-11-04T23:41:16.698Z,2.85
2023-11-04T23:43:49.607Z,2.50
2023-11-04T23:46:19.765Z,2.17
2023-11-04T23:48:49.859Z,2.88
2023-11-04T23:51:19.890Z,2.25
2023-11-04T23:53:48.910Z,2.72
2023-11-04T23:56:17.170Z,2.92
2023-11-04T23:58:50.875Z,2.80
